createdAt,value
2022-08-10T00:04:55.116Z,22.71
2022-08-10T00:14:56.776Z,22.67
2022-08-10T00:24:58.455Z,22.52
2022-08-10T00:35:00.045Z,22.54
2022-08-10T00:45:01.561Z,22.36
2022-08-10T00:55:05.358Z,22.20
2022-08-10T01:05:14.493Z,22.12
2022-08-10T01:15:26.847Z,22.14
2022-08-10T01:26:10.531Z,22.08
2022-08-10T01:36:19.375Z,21.90
2022-08-10T01:46:35.888Z,21.72
2022-08-10T01:56:40.339Z,21.56
2022-08-10T02:06:53.342Z,21.37
2022-08-10T02:16:55.427Z,21.18
2022-08-10T02:26:58.021Z,21.08
2022-08-10T02:37:10.837Z,21.02
2022-08-10T02:47:51.567Z,20.91
2022-08-10T02:58:12.658Z,20.82
2022-08-10T03:08:22.589Z,20.79
2022-08-10T03:18:24.964Z,20.67
2022-08-10T03:28:29.579Z,20.64
2022-08-10T03:38:31.112Z,20.57
2022-08-10T03:48:48.842Z,20.69
2022-08-10T03:58:51.336Z,20.67
2022-08-10T04:08:53.024Z,20.71
2022-08-10T04:18:54.522Z,20.69
2022-08-10T04:28:56.292Z,20.75
2022-08-10T04:38:58.159Z,21.01
2022-08-10T04:49:01.855Z,21.15
2022-08-10T04:59:08.617Z,21.38
2022-08-10T05:09:10.117Z,21.65
2022-08-10T05:19:11.832Z,21.86
2022-08-10T05:29:13.314Z,22.21
2022-08-10T05:39:15.325Z,22.76
2022-08-10T05:49:17.271Z,22.97
2022-08-10T06:00:10.977Z,23.17
2022-08-10T06:09:58.555Z,23.71
2022-08-10T06:20:02.283Z,24.43
2022-08-10T06:30:04.231Z,33.71
2022-08-10T06:40:27.486Z,42.73
2022-08-10T06:50:56.506Z,45.65
2022-08-10T07:01:03.000Z,46.31
2022-08-10T07:11:08.825Z,46.59
2022-08-10T07:21:14.838Z,48.91
2022-08-10T07:31:36.089Z,50.39
2022-08-10T07:41:44.233Z,53.63
2022-08-10T07:51:46.768Z,52.85
2022-08-10T08:01:58.075Z,47.82
2022-08-10T08:12:01.014Z,49.82
2022-08-10T08:24:05.628Z,49.51
2022-08-10T08:32:29.432Z,48.19
2022-08-10T08:42:50.763Z,51.14
2022-08-10T08:53:21.154Z,50.63
2022-08-10T09:04:00.796Z,49.21
2022-08-10T09:14:31.369Z,48.97
2022-08-10T09:24:45.010Z,47.92
2022-08-10T09:36:22.287Z,50.48
2022-08-10T09:45:32.100Z,48.96
2022-08-10T09:56:17.848Z,49.50
2022-08-10T10:06:45.880Z,49.32
2022-08-10T10:17:11.111Z,48.36
2022-08-10T10:27:40.612Z,48.31
2022-08-10T10:38:10.205Z,47.81
2022-08-10T10:48:17.680Z,45.89
2022-08-10T10:58:32.923Z,44.88
2022-08-10T11:09:01.850Z,40.73
2022-08-10T11:19:17.179Z,35.91
2022-08-10T11:29:30.827Z,34.98
2022-08-10T11:39:57.141Z,34.40
2022-08-10T11:50:07.162Z,34.06
2022-08-10T12:00:09.387Z,33.91
2022-08-10T12:10:14.591Z,32.71
2022-08-10T12:20:27.721Z,33.25
2022-08-10T12:30:40.885Z,34.55
2022-08-10T12:40:48.689Z,34.14
2022-08-10T12:51:06.755Z,34.84
2022-08-10T13:01:18.544Z,35.91
2022-08-10T13:12:44.677Z,34.56
2022-08-10T13:21:50.501Z,33.42
2022-08-10T13:32:09.269Z,34.83
2022-08-10T13:42:13.936Z,34.99
2022-08-10T13:52:20.919Z,34.45
2022-08-10T14:02:50.575Z,35.50
2022-08-10T14:12:53.745Z,36.09
2022-08-10T14:23:10.342Z,34.56
2022-08-10T14:33:19.244Z,35.19
2022-08-10T14:43:28.687Z,34.70
2022-08-10T14:53:34.987Z,33.96
2022-08-10T15:04:00.740Z,34.18
2022-08-10T15:14:34.124Z,34.71
2022-08-10T15:25:02.147Z,33.27
2022-08-10T15:35:25.489Z,34.35
2022-08-10T15:45:28.146Z,34.47
2022-08-10T15:55:51.579Z,32.69
2022-08-10T16:06:01.484Z,31.62
2022-08-10T16:16:07.442Z,30.98
2022-08-10T16:26:15.104Z,30.92
2022-08-10T16:36:20.883Z,31.06
2022-08-10T16:46:23.118Z,30.45
2022-08-10T16:56:34.114Z,30.25
2022-08-10T17:06:56.575Z,30.39
2022-08-10T17:17:05.472Z,30.00
2022-08-10T17:28:05.633Z,29.84
2022-08-10T17:37:38.321Z,29.47
2022-08-10T17:47:47.819Z,29.23
2022-08-10T17:57:50.257Z,28.97
2022-08-10T18:08:11.984Z,28.73
2022-08-10T18:18:20.350Z,28.48
2022-08-10T18:28:23.054Z,28.15
2022-08-10T18:38:25.821Z,27.74
2022-08-10T18:48:40.411Z,27.50
2022-08-10T18:59:16.967Z,27.12
2022-08-10T19:09:46.712Z,26.80
2022-08-10T19:20:01.890Z,26.68
2022-08-10T19:30:13.380Z,26.47
2022-08-10T19:40:46.431Z,26.27
2022-08-10T19:50:57.876Z,26.00
2022-08-10T20:01:02.318Z,25.74
2022-08-10T20:11:44.370Z,25.57
2022-08-10T20:21:47.265Z,25.38
2022-08-10T20:32:03.901Z,25.08
2022-08-10T20:42:15.953Z,24.96
2022-08-10T20:52:18.444Z,24.81
2022-08-10T21:02:32.938Z,24.62
2022-08-10T21:13:17.184Z,24.50
2022-08-10T21:23:20.366Z,24.28
2022-08-10T21:33:48.986Z,24.12
2022-08-10T21:44:25.651Z,24.10
2022-08-10T21:54:51.524Z,23.96
2022-08-10T22:05:11.729Z,23.84
2022-08-10T22:16:03.162Z,23.61
2022-08-10T22:26:29.724Z,23.67
2022-08-10T22:37:20.365Z,23.43
2022-08-10T22:47:42.952Z,23.36
2022-08-10T22:58:08.717Z,23.31
2022-08-10T23:08:29.613Z,23.16
2022-08-10T23:18:57.030Z,23.07
2022-08-10T23:29:09.646Z,22.84
2022-08-10T23:39:26.933Z,22.72
2022-08-10T23:49:37.129Z,22.69
2022-08-10T23:59:38.814Z,22.57
